Time;durP1;ratioP1;P1;durP2;ratioP2;P2;SDS_P1;SDS_P2;PMS_P1;PMS_P2;Temp;Humidity;BMP_temperature;BMP_pressure;BME280_temperature;BME280_humidity;BME280_pressure;Samples;Min_cycle;Max_cycle;Signal;HPM_P1;HPM_P2
2023/02/09 00:01:23;;;;;;;29.48;17.50;;;;;;;-1.97;70.24;102906.13;4959291;28;20043;-57
2023/02/09 00:03:51;;;;;;;27.85;18.08;;;;;;;-1.96;70.99;102897.53;4955792;28;20599;-58
2023/02/09 00:06:21;;;;;;;27.38;16.25;;;;;;;-1.98;70.36;102883.75;4948275;28;20051;-59
2023/02/09 00:08:48;;;;;;;30.20;17.92;;;;;;;-1.93;70.53;102884.75;4954545;28;20601;-60
2023/02/09 00:11:19;;;;;;;31.17;16.35;;;;;;;-1.99;70.40;102881.09;4958938;28;20047;-60
2023/02/09 00:13:47;;;;;;;32.25;17.92;;;;;;;-2.00;70.84;102884.50;4962044;28;20274;-62
2023/02/09 00:16:15;;;;;;;29.88;18.23;;;;;;;-1.99;70.49;102887.13;4962947;28;20082;-61
2023/02/09 00:18:42;;;;;;;28.38;17.52;;;;;;;-1.99;70.68;102883.66;4960514;28;20631;-60
2023/02/09 00:21:10;;;;;;;30.88;17.40;;;;;;;-2.01;70.61;102886.22;4977397;28;20085;-61
2023/02/09 00:23:39;;;;;;;26.17;16.60;;;;;;;-2.01;70.29;102881.06;4973695;28;20411;-63
2023/02/09 00:26:10;;;;;;;30.02;16.50;;;;;;;-2.04;70.48;102871.50;4969997;28;20090;-62
2023/02/09 00:28:37;;;;;;;29.08;16.33;;;;;;;-2.04;70.17;102871.50;4968949;28;20065;-59
2023/02/09 00:31:10;;;;;;;28.60;17.15;;;;;;;-2.06;70.31;102868.03;4963500;28;20081;-61
2023/02/09 00:33:37;;;;;;;27.30;16.83;;;;;;;-2.05;70.47;102866.31;4976005;28;20085;-61
2023/02/09 00:36:11;;;;;;;28.23;16.42;;;;;;;-2.07;70.77;102865.41;4961594;28;20149;-59
2023/02/09 00:38:39;;;;;;;24.95;16.63;;;;;;;-2.09;70.96;102859.31;4959200;28;20137;-61
2023/02/09 00:41:06;;;;;;;31.13;17.58;;;;;;;-2.06;71.24;102852.53;4963863;28;20065;-59
2023/02/09 00:43:37;;;;;;;26.90;16.02;;;;;;;-2.06;70.59;102847.38;4963596;28;20455;-61
2023/02/09 00:46:05;;;;;;;28.52;15.35;;;;;;;-2.09;70.91;102843.81;4960799;28;20109;-60
2023/02/09 00:48:33;;;;;;;24.98;15.88;;;;;;;-2.11;70.67;102846.38;4960949;28;20070;-62
2023/02/09 00:51:00;;;;;;;26.10;16.27;;;;;;;-2.15;70.69;102854.84;4962595;28;20073;-61
2023/02/09 00:53:28;;;;;;;26.42;16.20;;;;;;;-2.17;70.62;102855.63;4961461;28;20093;-63
2023/02/09 00:55:55;;;;;;;28.70;16.95;;;;;;;-2.18;70.63;102854.75;4962666;28;20051;-60
2023/02/09 00:58:22;;;;;;;27.65;17.13;;;;;;;-2.19;70.55;102846.97;4963570;28;20422;-57
2023/02/09 01:01:01;;;;;;;25.33;16.52;;;;;;;-2.20;70.46;102845.22;4964417;28;21021;-60
2023/02/09 01:03:29;;;;;;;27.17;17.08;;;;;;;-2.26;70.71;102835.59;4963338;28;20149;-60
2023/02/09 01:05:58;;;;;;;26.95;16.38;;;;;;;-2.27;70.84;102843.28;4963094;28;20051;-61
2023/02/09 01:08:25;;;;;;;27.42;16.48;;;;;;;-2.26;70.76;102840.75;4961486;28;20175;-59
2023/02/09 01:10:52;;;;;;;29.92;17.27;;;;;;;-2.30;70.76;102839.81;4962056;28;20072;-61
2023/02/09 01:13:19;;;;;;;28.10;17.10;;;;;;;-2.31;70.90;102832.00;4964008;28;20579;-60
2023/02/09 01:15:46;;;;;;;27.88;15.75;;;;;;;-2.34;70.85;102824.19;4960190;28;20205;-61
2023/02/09 01:18:14;;;;;;;24.75;15.35;;;;;;;-2.35;71.06;102833.59;4962972;28;20630;-61
2023/02/09 01:20:41;;;;;;;27.98;16.75;;;;;;;-2.41;71.05;102835.16;4960959;28;20441;-62
2023/02/09 01:23:10;;;;;;;25.50;16.48;;;;;;;-2.43;71.21;102831.63;4963730;28;20133;-62
2023/02/09 01:25:37;;;;;;;26.05;15.60;;;;;;;-2.42;71.47;102828.25;4958175;28;21222;-61
2023/02/09 01:28:04;;;;;;;23.73;15.23;;;;;;;-2.45;71.22;102829.00;4957524;28;20080;-60
2023/02/09 01:30:33;;;;;;;26.23;15.73;;;;;;;-2.43;71.72;102829.03;4965029;28;20071;-62
2023/02/09 01:33:00;;;;;;;25.15;15.30;;;;;;;-2.45;71.55;102823.84;4969154;28;20169;-62
2023/02/09 01:35:27;;;;;;;27.27;15.10;;;;;;;-2.51;71.06;102809.91;4975261;28;20062;-62
2023/02/09 01:37:57;;;;;;;25.50;15.15;;;;;;;-2.51;71.47;102812.50;4970383;28;20185;-62
2023/02/09 01:40:24;;;;;;;26.67;15.77;;;;;;;-2.52;71.34;102815.88;4973728;28;20121;-63
2023/02/09 01:42:52;;;;;;;25.77;15.82;;;;;;;-2.55;71.48;102798.63;4974626;28;20143;-61
2023/02/09 01:45:33;;;;;;;27.48;16.95;;;;;;;-2.58;71.28;102796.81;4966196;28;21072;-61
2023/02/09 01:48:02;;;;;;;28.67;16.52;;;;;;;-2.63;71.58;102789.78;4976815;28;20153;-62
2023/02/09 01:50:33;;;;;;;27.85;15.43;;;;;;;-2.66;71.49;102792.25;4955110;28;20054;-62
2023/02/09 01:53:01;;;;;;;23.58;15.20;;;;;;;-2.67;71.22;102787.94;4964189;28;20560;-63
2023/02/09 01:55:31;;;;;;;27.15;15.95;;;;;;;-2.66;71.47;102787.09;4962545;28;20055;-60
2023/02/09 01:58:03;;;;;;;27.00;15.45;;;;;;;-2.63;71.76;102782.03;4959828;28;20847;-61
2023/02/09 02:00:30;;;;;;;26.70;15.93;;;;;;;-2.64;71.54;102772.56;4959946;28;20051;-62
2023/02/09 02:03:01;;;;;;;23.25;14.90;;;;;;;-2.66;71.66;102774.22;4963176;28;20582;-60
2023/02/09 02:05:28;;;;;;;23.50;15.25;;;;;;;-2.69;71.72;102762.13;4957450;28;20582;-62
2023/02/09 02:08:06;;;;;;;27.63;15.55;;;;;;;-2.73;71.35;102754.25;4958448;28;20158;-61
2023/02/09 02:10:34;;;;;;;21.70;13.40;;;;;;;-2.77;71.58;102755.84;5021120;22;20138;-64
2023/02/09 02:13:01;;;;;;;21.23;14.80;;;;;;;-2.82;71.55;102752.28;4978318;28;20100;-64
2023/02/09 02:15:37;;;;;;;25.60;15.00;;;;;;;-2.79;71.60;102754.94;4979917;28;20130;-64
2023/02/09 02:18:29;;;;;;;24.85;15.88;;;;;;;-2.80;71.51;102750.59;4978240;28;20069;-64
2023/02/09 02:21:23;;;;;;;23.42;14.80;;;;;;;-2.85;71.92;102749.59;4979392;28;20074;-64
2023/02/09 02:23:56;;;;;;;23.55;14.63;;;;;;;-2.86;71.48;102753.00;4991268;28;20054;-65
2023/02/09 02:26:54;;;;;;;26.80;15.82;;;;;;;-2.89;71.37;102742.59;4981898;28;20058;-63
2023/02/09 02:29:42;;;;;;;26.50;15.63;;;;;;;-2.86;71.78;102742.69;4976737;28;20066;-63
2023/02/09 02:32:16;;;;;;;22.67;14.65;;;;;;;-2.92;71.83;102732.22;5012579;28;20046;-63
2023/02/09 02:34:48;;;;;;;27.20;16.02;;;;;;;-2.93;72.26;102736.47;4980710;28;20097;-63
2023/02/09 02:37:48;;;;;;;27.13;15.57;;;;;;;-2.96;71.92;102726.09;4981717;28;20701;-63
2023/02/09 02:40:49;;;;;;;23.17;16.08;;;;;;;-2.96;72.43;102726.09;4969731;28;20066;-66
2023/02/09 02:43:21;;;;;;;25.27;15.38;;;;;;;-2.98;72.23;102732.00;4978639;28;20056;-65
2023/02/09 02:45:57;;;;;;;23.83;15.50;;;;;;;-3.00;72.20;102725.94;4979748;28;20228;-61
2023/02/09 02:48:45;;;;;;;26.73;15.32;;;;;;;-3.03;72.34;102715.53;4991079;28;20046;-64
2023/02/09 02:51:35;;;;;;;25.17;15.07;;;;;;;-3.02;71.93;102720.72;4977265;28;20057;-65
2023/02/09 02:54:06;;;;;;;21.23;14.57;;;;;;;-3.03;72.14;102713.81;4977149;28;20522;-62
2023/02/09 02:56:37;;;;;;;21.83;15.20;;;;;;;-3.04;72.71;102703.47;4980471;28;20165;-64
2023/02/09 02:59:09;;;;;;;22.50;14.93;;;;;;;-3.11;72.55;102702.41;4995481;28;21256;-65
2023/02/09 03:01:48;;;;;;;25.13;15.60;;;;;;;-3.14;72.74;102703.22;4996786;28;20077;-64
2023/02/09 03:04:16;;;;;;;24.63;15.55;;;;;;;-3.12;72.42;102698.09;4994999;28;20076;-62
2023/02/09 03:06:44;;;;;;;24.00;14.70;;;;;;;-3.12;72.69;102696.38;4978571;28;20105;-66
2023/02/09 03:09:11;;;;;;;27.27;16.25;;;;;;;-3.11;72.48;102700.72;4980013;28;20136;-63
2023/02/09 03:11:41;;;;;;;24.58;14.68;;;;;;;-3.13;72.37;102694.66;4981454;28;20058;-64
2023/02/09 03:14:36;;;;;;;23.02;15.38;;;;;;;-3.11;72.32;102704.97;4980432;28;20085;-65
2023/02/09 03:17:23;;;;;;;22.38;14.77;;;;;;;-3.09;72.63;102698.19;4981718;28;20172;-65
2023/02/09 03:19:58;;;;;;;23.83;14.50;;;;;;;-3.22;72.60;102699.50;4979673;28;20058;-64
2023/02/09 03:22:36;;;;;;;22.20;13.90;;;;;;;-3.22;72.72;102694.38;4980678;28;20110;-64
2023/02/09 03:25:21;;;;;;;25.08;14.23;;;;;;;-3.23;72.79;102697.78;4982569;28;20426;-65
2023/02/09 03:28:00;;;;;;;22.83;14.00;;;;;;;-3.20;72.94;102695.28;4977674;28;20078;-65
2023/02/09 03:30:27;;;;;;;23.38;14.77;;;;;;;-3.17;72.70;102694.50;4978846;28;21107;-64
2023/02/09 03:32:55;;;;;;;21.60;14.07;;;;;;;-3.15;72.74;102692.84;4975842;28;20157;-64
2023/02/09 03:35:32;;;;;;;22.45;14.38;;;;;;;-3.15;72.37;102683.44;4980386;28;20046;-63
2023/02/09 03:38:00;;;;;;;26.50;15.15;;;;;;;-3.18;72.21;102675.59;4980023;28;20059;-67
2023/02/09 03:40:27;;;;;;;21.48;13.88;;;;;;;-3.16;72.20;102668.78;4981387;28;20065;-64
2023/02/09 03:42:54;;;;;;;21.85;14.45;;;;;;;-3.15;71.88;102667.06;4979935;28;20051;-64
2023/02/09 03:45:22;;;;;;;23.38;15.00;;;;;;;-3.15;72.30;102667.97;4979191;28;20509;-64
2023/02/09 03:47:49;;;;;;;21.13;13.15;;;;;;;-3.15;72.60;102664.50;4981996;28;20094;-65
2023/02/09 03:50:16;;;;;;;24.13;14.57;;;;;;;-3.17;72.62;102658.44;4983393;28;20062;-65
2023/02/09 03:52:43;;;;;;;22.83;13.93;;;;;;;-3.17;72.47;102661.88;4980973;28;20058;-64
2023/02/09 03:55:11;;;;;;;21.55;14.25;;;;;;;-3.17;72.56;102661.88;4980946;28;20059;-64
2023/02/09 03:57:38;;;;;;;25.23;14.55;;;;;;;-3.17;72.39;102669.63;4983802;28;20180;-62
2023/02/09 04:00:06;;;;;;;22.98;13.23;;;;;;;-3.16;72.26;102663.63;4987848;28;20058;-63
2023/02/09 04:02:33;;;;;;;22.88;14.77;;;;;;;-3.18;72.27;102655.00;4984732;28;20054;-64
2023/02/09 04:05:00;;;;;;;24.20;14.40;;;;;;;-3.17;72.45;102664.47;4986029;28;20510;-64
2023/02/09 04:07:30;;;;;;;20.58;14.60;;;;;;;-3.15;72.47;102655.09;4981627;28;20050;-65
2023/02/09 04:09:57;;;;;;;22.55;14.02;;;;;;;-3.15;72.23;102659.34;4985190;28;20050;-62
2023/02/09 04:12:24;;;;;;;26.17;14.68;;;;;;;-3.14;72.20;102659.41;4983996;28;20125;-66
2023/02/09 04:14:52;;;;;;;21.13;13.77;;;;;;;-3.13;71.95;102660.28;4986660;28;20054;-64
2023/02/09 04:17:20;;;;;;;22.42;13.32;;;;;;;-3.13;72.07;102662.84;4984939;28;20066;-64
2023/02/09 04:20:12;;;;;;;24.00;13.32;;;;;;;-3.12;71.87;102651.72;4982532;28;20058;-63
2023/02/09 04:22:39;;;;;;;24.75;14.82;;;;;;;-3.16;71.98;102658.47;4983271;28;20092;-64
2023/02/09 04:25:07;;;;;;;22.60;14.23;;;;;;;-3.17;71.98;102646.44;4985245;28;21319;-64
2023/02/09 04:27:34;;;;;;;22.63;15.15;;;;;;;-3.18;72.22;102657.56;4985531;28;20054;-65
2023/02/09 04:30:01;;;;;;;22.48;14.73;;;;;;;-3.19;72.11;102653.25;4997939;28;20069;-64
2023/02/09 04:32:28;;;;;;;22.67;14.40;;;;;;;-3.17;72.13;102638.69;4980345;28;20146;-64
2023/02/09 04:34:55;;;;;;;23.90;14.30;;;;;;;-3.18;72.11;102642.13;4980495;28;20506;-64
2023/02/09 04:37:23;;;;;;;23.52;13.85;;;;;;;-3.25;71.95;102645.31;4982637;28;20054;-64
2023/02/09 04:39:50;;;;;;;23.95;14.02;;;;;;;-3.26;71.97;102659.03;4981192;28;20481;-63
2023/02/09 04:42:17;;;;;;;22.50;13.55;;;;;;;-3.27;72.22;102649.56;4979861;28;21941;-64
2023/02/09 04:44:45;;;;;;;24.77;15.10;;;;;;;-3.24;72.05;102651.34;5014259;28;20153;-64
2023/02/09 04:47:12;;;;;;;24.80;14.55;;;;;;;-3.27;72.02;102647.00;4983616;28;20058;-64
2023/02/09 04:49:41;;;;;;;24.70;15.40;;;;;;;-3.25;71.97;102640.16;4982367;28;20056;-64
2023/02/09 04:52:08;;;;;;;23.83;14.35;;;;;;;-3.30;71.93;102646.88;4981416;28;20060;-64
2023/02/09 04:54:35;;;;;;;27.10;16.05;;;;;;;-3.32;72.15;102644.28;4982766;28;20058;-63
2023/02/09 04:59:48;;;;;;;23.55;15.38;;;;;;;-3.28;72.50;102634.06;4982764;28;20043;-64
2023/02/09 05:02:16;;;;;;;25.27;16.02;;;;;;;-3.36;72.33;102637.28;4978060;28;20134;-65
2023/02/09 05:04:43;;;;;;;22.95;14.68;;;;;;;-3.44;72.49;102641.31;4981684;28;20076;-63
2023/02/09 05:07:10;;;;;;;24.88;15.18;;;;;;;-3.39;72.29;102639.75;4978181;28;20057;-64
2023/02/09 05:09:38;;;;;;;24.40;15.70;;;;;;;-3.35;72.43;102643.31;4979157;28;20654;-64
2023/02/09 05:12:08;;;;;;;21.23;14.45;;;;;;;-3.35;72.40;102635.56;4981995;28;20137;-65
2023/02/09 05:14:36;;;;;;;25.48;15.45;;;;;;;-3.41;72.65;102646.56;4979504;28;20137;-65
2023/02/09 05:17:03;;;;;;;24.33;15.15;;;;;;;-3.38;72.04;102635.47;4980719;28;20089;-65
2023/02/09 05:19:30;;;;;;;27.30;15.45;;;;;;;-3.41;72.44;102632.81;4976363;28;20046;-64
2023/02/09 05:21:57;;;;;;;30.92;16.88;;;;;;;-3.40;72.53;102639.72;4983361;28;20570;-66
2023/02/09 05:24:24;;;;;;;23.48;15.07;;;;;;;-3.38;72.31;102632.91;4982555;28;20053;-64
2023/02/09 05:26:52;;;;;;;27.45;16.90;;;;;;;-3.36;72.46;102616.69;4976315;28;20058;-63
2023/02/09 05:29:19;;;;;;;24.00;15.45;;;;;;;-3.39;71.82;102621.72;4976114;28;20647;-65
2023/02/09 05:31:48;;;;;;;23.88;15.68;;;;;;;-3.38;72.31;102615.78;4974088;28;20062;-64
2023/02/09 05:34:15;;;;;;;24.63;15.93;;;;;;;-3.45;72.36;102623.25;4983282;28;20058;-64
2023/02/09 05:36:42;;;;;;;28.25;16.63;;;;;;;-3.50;72.40;102628.25;4980610;28;20142;-63
2023/02/09 05:39:10;;;;;;;26.90;16.70;;;;;;;-3.62;72.04;102622.72;4983447;28;20038;-63
2023/02/09 05:44:23;;;;;;;23.05;16.90;;;;;;;-3.62;72.78;102621.03;4983940;28;20049;-65
2023/02/09 05:46:50;;;;;;;26.98;16.92;;;;;;;-3.53;72.58;102624.72;4982618;28;20061;-64
2023/02/09 05:49:18;;;;;;;23.70;16.52;;;;;;;-3.52;72.62;102618.72;4981735;28;20134;-65
2023/02/09 05:51:45;;;;;;;24.70;16.77;;;;;;;-3.49;72.32;102616.25;4978493;28;21018;-65
2023/02/09 05:54:12;;;;;;;23.73;16.92;;;;;;;-3.49;72.63;102624.84;4980558;28;20157;-64
2023/02/09 05:56:39;;;;;;;24.48;17.48;;;;;;;-3.43;72.56;102624.16;4981450;28;20057;-64
2023/02/09 05:59:06;;;;;;;24.45;17.35;;;;;;;-3.53;72.43;102625.59;4979011;28;20137;-64
2023/02/09 06:01:34;;;;;;;26.08;17.05;;;;;;;-3.51;72.50;102629.09;4982411;28;20058;-64
2023/02/09 06:04:01;;;;;;;26.08;17.00;;;;;;;-3.48;72.99;102624.03;4970793;28;20055;-65
2023/02/09 06:06:28;;;;;;;26.88;16.52;;;;;;;-3.46;72.39;102622.38;4964056;28;20496;-64
2023/02/09 06:08:56;;;;;;;25.30;17.45;;;;;;;-3.43;71.80;102625.03;4973001;28;20058;-64
2023/02/09 06:14:16;;;;;;;25.98;17.65;;;;;;;-3.41;72.22;102627.69;4979329;28;20169;-64
2023/02/09 06:16:44;;;;;;;25.85;16.02;;;;;;;-3.46;73.03;102632.69;4979678;28;20962;-65
2023/02/09 06:19:17;;;;;;;22.08;15.57;;;;;;;-3.46;72.83;102626.66;4978973;28;21912;-63
2023/02/09 06:22:10;;;;;;;25.15;17.33;;;;;;;-3.41;72.77;102617.38;4978545;28;20127;-64
2023/02/09 06:24:37;;;;;;;27.50;17.73;;;;;;;-3.39;73.12;102619.16;4995391;28;20073;-63
2023/02/09 06:27:04;;;;;;;26.30;17.42;;;;;;;-3.35;72.37;102620.13;4981247;28;20058;-62
2023/02/09 06:29:31;;;;;;;28.30;18.15;;;;;;;-3.36;72.80;102626.09;4980609;28;20402;-64
2023/02/09 06:31:58;;;;;;;23.25;17.02;;;;;;;-3.38;73.36;102625.16;4981038;28;20143;-64
2023/02/09 06:34:26;;;;;;;29.55;17.70;;;;;;;-3.32;72.91;102627.94;4980537;28;20077;-64
2023/02/09 06:36:53;;;;;;;29.52;16.77;;;;;;;-3.29;72.67;102622.00;4976880;28;20149;-65
2023/02/09 06:39:20;;;;;;;26.25;16.50;;;;;;;-3.28;73.03;102628.94;4978877;28;20062;-65
2023/02/09 06:41:47;;;;;;;26.25;17.25;;;;;;;-3.28;73.05;102627.22;4977564;28;20076;-68
2023/02/09 06:44:14;;;;;;;28.40;17.65;;;;;;;-3.26;72.68;102629.84;4975522;28;20384;-64
2023/02/09 06:46:42;;;;;;;27.58;17.60;;;;;;;-3.22;73.16;102624.81;4980366;28;20141;-64
2023/02/09 06:49:09;;;;;;;27.15;16.52;;;;;;;-3.26;71.96;102624.69;4977596;28;20073;-65
2023/02/09 06:51:36;;;;;;;30.83;18.88;;;;;;;-3.35;72.20;102623.56;4981939;28;20058;-65
2023/02/09 06:54:04;;;;;;;24.92;16.92;;;;;;;-3.28;73.28;102640.09;4978320;28;20069;-65
2023/02/09 06:56:31;;;;;;;26.73;16.27;;;;;;;-3.28;73.06;102634.06;4977928;28;20058;-65
2023/02/09 06:58:58;;;;;;;28.45;17.48;;;;;;;-3.33;72.41;102633.94;4976839;28;20400;-63
2023/02/09 07:01:26;;;;;;;31.23;18.77;;;;;;;-3.34;72.69;102625.31;4977296;28;20216;-63
2023/02/09 07:03:54;;;;;;;28.77;17.73;;;;;;;-3.32;72.76;102635.69;4979555;28;20072;-65
2023/02/09 07:06:21;;;;;;;28.38;18.13;;;;;;;-3.38;73.30;102635.47;4979597;28;20051;-65
2023/02/09 07:08:49;;;;;;;31.88;18.38;;;;;;;-3.36;73.05;102644.13;4990938;28;20050;-63
2023/02/09 07:11:17;;;;;;;30.30;19.05;;;;;;;-3.38;71.86;102640.63;4977150;28;20050;-63
2023/02/09 07:13:45;;;;;;;27.75;17.73;;;;;;;-3.34;72.92;102645.03;4980865;28;20137;-64
2023/02/09 07:16:13;;;;;;;26.58;16.90;;;;;;;-3.30;73.02;102644.31;4983107;28;20487;-65
2023/02/09 07:18:41;;;;;;;25.38;16.52;;;;;;;-3.30;72.60;102636.59;4980301;28;20061;-65
2023/02/09 07:21:18;;;;;;;26.20;16.67;;;;;;;-3.28;72.29;102637.53;4982890;28;20061;-62
2023/02/09 07:23:46;;;;;;;27.38;17.20;;;;;;;-3.26;71.84;102634.97;4984229;28;20052;-64
2023/02/09 07:26:15;;;;;;;23.48;16.00;;;;;;;-3.35;71.58;102633.00;4984430;28;20542;-64
2023/02/09 07:28:42;;;;;;;28.85;16.98;;;;;;;-3.31;72.18;102630.56;4980288;28;20050;-65
2023/02/09 07:31:11;;;;;;;26.30;16.58;;;;;;;-3.23;72.68;102625.66;4984528;28;20511;-63
2023/02/09 07:33:39;;;;;;;28.60;16.83;;;;;;;-3.16;72.82;102627.56;4983954;28;20064;-64
2023/02/09 07:36:08;;;;;;;29.17;18.23;;;;;;;-3.08;72.80;102633.81;4983545;28;20157;-64
2023/02/09 07:38:36;;;;;;;28.52;17.23;;;;;;;-3.06;72.62;102621.88;4976371;28;20050;-64
2023/02/09 07:41:05;;;;;;;26.20;16.77;;;;;;;-2.94;72.03;102639.38;4981188;28;20061;-66
2023/02/09 07:43:33;;;;;;;28.80;17.27;;;;;;;-2.89;72.62;102647.22;4982035;28;20437;-64
2023/02/09 07:46:05;;;;;;;28.05;17.25;;;;;;;-2.88;72.16;102639.56;4972683;28;20690;-65
2023/02/09 07:48:33;;;;;;;25.52;16.20;;;;;;;-2.84;71.85;102630.19;4979848;28;20062;-64
2023/02/09 07:51:00;;;;;;;27.02;16.90;;;;;;;-2.82;72.02;102632.00;4986963;28;20344;-64
2023/02/09 07:53:28;;;;;;;28.65;15.98;;;;;;;-2.75;71.65;102627.88;4986516;28;20077;-64
2023/02/09 07:55:55;;;;;;;30.30;16.83;;;;;;;-2.73;71.96;102631.38;4982885;28;20259;-65
2023/02/09 07:58:23;;;;;;;29.55;16.65;;;;;;;-2.74;70.68;102631.34;4984412;28;20162;-65
2023/02/09 08:00:50;;;;;;;26.98;16.65;;;;;;;-2.78;71.42;102635.53;4983502;28;20082;-67
2023/02/09 08:03:19;;;;;;;26.70;17.45;;;;;;;-2.78;71.50;102630.38;4983461;28;20050;-63
2023/02/09 08:05:59;;;;;;;29.67;17.35;;;;;;;-2.71;71.42;102624.56;4985672;28;20078;-64
2023/02/09 08:08:27;;;;;;;26.67;15.45;;;;;;;-2.64;71.70;102621.31;5016551;28;20050;-64
2023/02/09 08:10:55;;;;;;;29.90;16.60;;;;;;;-2.61;70.90;102616.25;4973276;28;20511;-64
2023/02/09 08:13:25;;;;;;;25.40;15.80;;;;;;;-2.63;70.01;102619.63;4975499;28;20109;-63
2023/02/09 08:15:55;;;;;;;26.02;16.20;;;;;;;-2.65;69.73;102621.28;4978511;28;20058;-63
2023/02/09 08:18:25;;;;;;;27.15;15.98;;;;;;;-2.59;69.50;102621.44;5007131;28;20140;-64
2023/02/09 08:20:53;;;;;;;28.42;15.07;;;;;;;-2.69;68.20;102629.78;4978993;28;20483;-63
2023/02/09 08:23:29;;;;;;;24.90;16.42;;;;;;;-2.87;68.81;102622.41;4978614;28;20145;-64
2023/02/09 08:25:58;;;;;;;24.25;14.57;;;;;;;-2.78;70.12;102616.63;4976890;28;20316;-63
2023/02/09 08:28:25;;;;;;;28.17;15.05;;;;;;;-2.71;68.94;102618.53;4975825;28;20061;-64
2023/02/09 08:31:14;;;;;;;24.10;14.98;;;;;;;-2.57;70.21;102612.94;4977147;28;20061;-64
2023/02/09 08:33:44;;;;;;;26.70;15.18;;;;;;;-2.45;68.91;102616.66;4977768;28;20089;-64
2023/02/09 08:36:11;;;;;;;25.73;14.85;;;;;;;-2.44;68.01;102616.69;5006421;28;20086;-63
2023/02/09 08:38:39;;;;;;;25.05;14.70;;;;;;;-2.41;68.14;102613.31;4978847;28;20462;-64
2023/02/09 08:41:08;;;;;;;24.35;14.82;;;;;;;-2.33;68.47;102619.56;4975195;28;21077;-64
2023/02/09 08:43:35;;;;;;;30.63;16.35;;;;;;;-2.30;67.23;102612.78;4981157;28;20050;-65
2023/02/09 08:46:12;;;;;;;23.17;14.00;;;;;;;-2.26;67.49;102618.00;4976757;28;20118;-65
2023/02/09 08:48:41;;;;;;;25.88;14.88;;;;;;;-2.19;67.71;102607.88;4973610;28;20153;-65
2023/02/09 08:51:10;;;;;;;28.23;14.93;;;;;;;-2.07;67.98;102605.63;4977389;28;20061;-64
2023/02/09 08:53:38;;;;;;;26.77;15.25;;;;;;;-1.97;67.99;102605.84;4980152;28;20064;-63
2023/02/09 08:56:05;;;;;;;28.05;15.27;;;;;;;-1.94;66.41;102606.78;4977649;28;20054;-65
2023/02/09 08:58:33;;;;;;;26.60;14.95;;;;;;;-1.88;66.82;102608.66;4980946;28;20187;-64
2023/02/09 09:01:01;;;;;;;24.38;14.73;;;;;;;-1.81;67.18;102607.94;4971645;28;20438;-66
2023/02/09 09:03:30;;;;;;;27.52;15.25;;;;;;;-1.77;66.79;102617.50;4973568;28;20805;-64
2023/02/09 09:05:59;;;;;;;24.75;15.57;;;;;;;-1.73;65.18;102623.63;4978955;28;20142;-65
2023/02/09 09:08:27;;;;;;;23.85;14.10;;;;;;;-1.70;65.80;102605.63;4973959;28;20061;-65
2023/02/09 09:10:54;;;;;;;22.15;13.80;;;;;;;-1.62;65.35;102601.50;4975175;28;20309;-64
2023/02/09 09:13:23;;;;;;;22.88;14.77;;;;;;;-1.54;66.21;102602.53;4978222;28;20062;-63
2023/02/09 09:15:51;;;;;;;29.77;15.60;;;;;;;-1.41;66.15;102603.69;4979363;28;20082;-66
2023/02/09 09:18:18;;;;;;;28.25;15.32;;;;;;;-1.33;65.57;102615.94;4975486;28;20078;-63
2023/02/09 09:20:46;;;;;;;26.95;14.85;;;;;;;-1.24;65.23;102599.78;4979002;28;20060;-65
2023/02/09 09:23:13;;;;;;;29.30;16.17;;;;;;;-1.20;66.11;102593.84;4975122;28;20566;-64
2023/02/09 09:25:41;;;;;;;26.50;14.80;;;;;;;-1.16;64.53;102595.66;4979194;28;20173;-66
2023/02/09 09:28:09;;;;;;;24.35;13.88;;;;;;;-1.09;64.88;102599.22;4975016;28;20073;-66
2023/02/09 09:30:36;;;;;;;24.42;15.43;;;;;;;-0.95;65.69;102599.50;4977481;28;20158;-66
2023/02/09 09:33:04;;;;;;;24.65;14.35;;;;;;;-0.89;65.69;102592.75;4978784;28;20080;-65
2023/02/09 09:35:31;;;;;;;27.67;15.02;;;;;;;-0.88;64.55;102596.19;4978862;28;20062;-66
2023/02/09 09:37:59;;;;;;;26.15;15.13;;;;;;;-0.88;64.63;102591.91;4988802;28;20046;-65
2023/02/09 09:40:32;;;;;;;28.25;14.95;;;;;;;-0.84;63.54;102585.94;4977229;28;20053;-64
2023/02/09 09:43:02;;;;;;;27.90;14.32;;;;;;;-0.77;64.47;102572.31;4971153;28;20406;-64
2023/02/09 09:45:32;;;;;;;30.52;14.95;;;;;;;-0.66;63.46;102576.81;5002335;28;20054;-65
2023/02/09 09:47:59;;;;;;;23.33;14.00;;;;;;;-0.58;63.56;102586.44;4971897;28;20048;-65
2023/02/09 09:50:31;;;;;;;28.70;14.25;;;;;;;-0.56;63.01;102579.56;4954849;28;20062;-64
2023/02/09 09:53:13;;;;;;;22.25;13.23;;;;;;;-0.43;63.99;102583.25;4971893;28;20058;-64
2023/02/09 09:55:41;;;;;;;26.35;13.85;;;;;;;-0.30;64.33;102568.81;4974366;28;20058;-66
2023/02/09 09:58:15;;;;;;;26.80;14.20;;;;;;;-0.18;64.07;102575.91;4977806;28;20068;-63
2023/02/09 10:00:42;;;;;;;27.73;13.43;;;;;;;-0.11;63.78;102557.06;4972864;28;20054;-65
2023/02/09 10:03:17;;;;;;;22.58;13.25;;;;;;;0.02;64.51;102552.94;4977725;28;20402;-63
2023/02/09 10:05:47;;;;;;;25.13;13.60;;;;;;;0.12;64.83;102544.47;4978152;28;20054;-65
2023/02/09 10:08:23;;;;;;;29.73;13.43;;;;;;;0.21;60.73;102547.19;4976941;28;20113;-61
2023/02/09 10:10:57;;;;;;;20.50;12.23;;;;;;;0.26;59.57;102550.69;4976602;28;20149;-63
2023/02/09 10:13:31;;;;;;;23.63;13.10;;;;;;;0.24;60.99;102560.19;4972771;28;20046;-61
2023/02/09 10:15:58;;;;;;;24.08;12.25;;;;;;;0.16;60.41;102552.28;4978163;28;20058;-63
2023/02/09 10:18:28;;;;;;;19.70;12.63;;;;;;;0.20;59.02;102542.84;4972767;28;20623;-63
2023/02/09 10:21:06;;;;;;;20.00;11.38;;;;;;;0.30;59.32;102552.50;4976875;28;20527;-64
2023/02/09 10:23:44;;;;;;;20.73;12.52;;;;;;;0.39;59.76;102543.97;4969472;28;20388;-64
2023/02/09 10:26:11;;;;;;;21.55;13.15;;;;;;;0.35;58.23;102545.66;4977314;28;20058;-64
2023/02/09 10:28:41;;;;;;;21.05;12.48;;;;;;;0.22;56.58;102543.72;4979091;28;20133;-64
2023/02/09 10:31:12;;;;;;;22.77;12.00;;;;;;;0.27;59.05;102543.81;4974450;28;20050;-64
2023/02/09 10:33:42;;;;;;;24.65;12.15;;;;;;;0.37;57.72;102532.75;4975566;28;20054;-65
2023/02/09 10:36:30;;;;;;;20.48;12.60;;;;;;;0.47;57.79;102527.69;4978974;28;20072;-64
2023/02/09 10:39:08;;;;;;;21.75;12.02;;;;;;;0.57;59.14;102527.81;4974941;28;20545;-65
2023/02/09 10:41:37;;;;;;;22.85;12.95;;;;;;;0.72;58.26;102546.13;4978652;28;20170;-65
2023/02/09 10:44:07;;;;;;;20.73;13.13;;;;;;;0.83;56.96;102535.91;4976316;28;20537;-66
2023/02/09 10:46:36;;;;;;;21.17;11.45;;;;;;;0.86;58.27;102531.66;4978143;28;20050;-64
2023/02/09 10:49:29;;;;;;;23.40;12.75;;;;;;;0.81;56.03;102522.03;4976718;28;20062;-64
2023/02/09 10:52:14;;;;;;;21.00;11.20;;;;;;;0.79;56.79;102508.22;4979578;28;20614;-64
2023/02/09 10:54:56;;;;;;;21.20;12.73;;;;;;;0.94;58.08;102505.78;4973305;28;20519;-64
2023/02/09 10:57:29;;;;;;;22.50;12.30;;;;;;;1.10;57.14;102499.91;4974358;28;20060;-65
2023/02/09 10:59:59;;;;;;;19.48;11.07;;;;;;;1.07;55.42;102496.41;4969559;28;20648;-65
2023/02/09 11:02:35;;;;;;;16.98;10.57;;;;;;;1.14;55.95;102501.69;4976116;28;20711;-64
2023/02/09 11:05:22;;;;;;;19.42;11.70;;;;;;;1.19;55.07;102481.84;4973261;28;20058;-65
2023/02/09 11:07:57;;;;;;;20.85;10.98;;;;;;;1.25;55.55;102463.72;4971661;28;20168;-64
2023/02/09 11:10:26;;;;;;;19.98;11.40;;;;;;;1.44;55.89;102445.72;4978468;28;20671;-64
2023/02/09 11:12:54;;;;;;;21.58;10.57;;;;;;;1.61;55.12;102441.53;4973883;28;20523;-64
2023/02/09 11:15:25;;;;;;;20.13;11.07;;;;;;;1.73;53.06;102446.81;4976688;28;20090;-64
2023/02/09 11:18:04;;;;;;;17.98;11.18;;;;;;;2.00;53.47;102448.72;4972819;28;20094;-65
2023/02/09 11:20:34;;;;;;;22.88;11.15;;;;;;;2.37;51.72;102433.28;4972084;28;20054;-65
2023/02/09 11:23:32;;;;;;;15.98;9.27;;;;;;;2.53;53.22;102445.50;4978391;28;20052;-65
2023/02/09 11:26:22;;;;;;;17.05;9.60;;;;;;;2.65;50.39;102435.97;4976286;28;20218;-65
2023/02/09 11:28:52;;;;;;;19.75;9.95;;;;;;;2.62;51.24;102442.06;4971949;28;21060;-65
2023/02/09 11:31:34;;;;;;;16.77;9.70;;;;;;;2.70;51.87;102442.06;4980266;28;20050;-64
2023/02/09 11:34:32;;;;;;;19.13;10.18;;;;;;;2.87;52.14;102444.72;4977330;28;20144;-64